Time;durP1;ratioP1;P1;durP2;ratioP2;P2;SDS_P1;SDS_P2;PMS_P1;PMS_P2;Temp;Humidity;BMP_temperature;BMP_pressure;BME280_temperature;BME280_humidity;BME280_pressure;Samples;Min_cycle;Max_cycle;Signal;HPM_P1;HPM_P2
2021/09/16 00:05:02;;;;;;;2.50;2.37;;;20.40;99.90;;;;;;10436267;28;20209;-86
2021/09/16 00:10:05;;;;;;;4.23;2.50;;;20.30;99.90;;;;;;10419450;28;20213;-85
2021/09/16 00:15:09;;;;;;;3.20;2.77;;;20.40;99.90;;;;;;10419094;28;20197;-87
2021/09/16 00:20:13;;;;;;;2.27;1.93;;;20.40;99.90;;;;;;10419162;28;20219;-85
2021/09/16 00:25:16;;;;;;;2.10;2.00;;;20.40;99.90;;;;;;10420002;28;20250;-85
2021/09/16 00:30:18;;;;;;;2.20;2.10;;;20.50;99.90;;;;;;10427154;28;20290;-86
2021/09/16 00:35:21;;;;;;;2.87;2.03;;;20.50;99.90;;;;;;10443593;28;20792;-86
2021/09/16 00:40:23;;;;;;;1.77;1.67;;;20.50;99.90;;;;;;10444881;28;20243;-85
2021/09/16 00:45:26;;;;;;;3.97;1.73;;;20.50;99.90;;;;;;10461808;28;20208;-86
2021/09/16 00:50:29;;;;;;;2.10;2.00;;;20.50;99.90;;;;;;10427204;28;20227;-86
2021/09/16 00:55:33;;;;;;;2.10;2.00;;;20.50;99.90;;;;;;10428195;28;20197;-84
2021/09/16 01:00:36;;;;;;;1.93;1.83;;;20.50;99.90;;;;;;10422585;28;20221;-85
2021/09/16 01:05:39;;;;;;;1.63;1.53;;;20.50;99.90;;;;;;10440973;28;20572;-84
2021/09/16 01:10:41;;;;;;;3.80;1.60;;;20.50;99.90;;;;;;10442820;28;20221;-84
2021/09/16 01:15:44;;;;;;;1.70;1.60;;;20.50;99.90;;;;;;10426026;28;20201;-84
2021/09/16 01:20:48;;;;;;;2.50;2.30;;;20.50;99.90;;;;;;10461022;28;20219;-85
2021/09/16 01:25:51;;;;;;;2.07;1.67;;;20.50;99.90;;;;;;10443052;28;20643;-85
2021/09/16 01:30:53;;;;;;;4.77;1.97;;;20.50;99.90;;;;;;10368414;23;20358;-85
2021/09/16 01:35:55;;;;;;;3.90;1.70;;;20.50;99.90;;;;;;10338952;28;20208;-86
2021/09/16 01:40:59;;;;;;;3.43;1.70;;;20.60;99.90;;;;;;10355427;28;20212;-85
2021/09/16 01:46:01;;;;;;;2.20;1.97;;;20.60;99.90;;;;;;10339304;28;20208;-86
2021/09/16 01:51:03;;;;;;;2.10;1.90;;;20.70;99.90;;;;;;10339510;28;20730;-85
2021/09/16 01:56:07;;;;;;;2.10;1.90;;;20.60;99.90;;;;;;10355672;28;20231;-86
2021/09/16 02:01:09;;;;;;;1.87;1.77;;;20.60;99.90;;;;;;10497868;28;20676;-85
2021/09/16 02:06:11;;;;;;;2.03;1.93;;;20.60;99.90;;;;;;10464536;28;20235;-86
2021/09/16 02:11:15;;;;;;;2.17;2.07;;;20.60;99.90;;;;;;10464704;28;20607;-86
2021/09/16 02:16:17;;;;;;;2.80;2.17;;;20.50;99.90;;;;;;10464496;28;20193;-85
2021/09/16 02:21:19;;;;;;;1.87;1.77;;;20.50;99.90;;;;;;10500012;28;20208;-86
2021/09/16 02:26:23;;;;;;;2.33;2.13;;;20.50;99.90;;;;;;10464815;28;20204;-85
2021/09/16 02:31:25;;;;;;;4.70;2.03;;;20.40;99.90;;;;;;10338440;28;20683;-86
2021/09/16 02:36:27;;;;;;;2.40;2.20;;;20.40;99.90;;;;;;10371389;28;20638;-85
2021/09/16 02:41:31;;;;;;;4.50;1.97;;;20.40;99.90;;;;;;10338350;28;20220;-86
2021/09/16 02:46:33;;;;;;;2.13;1.87;;;20.30;99.90;;;;;;10337486;28;20207;-85
2021/09/16 02:51:35;;;;;;;2.00;1.90;;;20.30;99.90;;;;;;10387730;28;20721;-86
2021/09/16 02:56:39;;;;;;;3.17;2.13;;;20.30;99.90;;;;;;10354319;28;20306;-86
2021/09/16 03:01:41;;;;;;;2.50;2.00;;;20.30;99.90;;;;;;10340240;28;20721;-86
2021/09/16 03:06:43;;;;;;;2.40;2.20;;;20.30;99.90;;;;;;10393921;28;20291;-85
2021/09/16 03:11:46;;;;;;;2.37;2.10;;;20.30;99.90;;;;;;10388060;28;20228;-85
2021/09/16 03:16:48;;;;;;;3.33;2.20;;;20.40;99.90;;;;;;10370642;28;20638;-86
2021/09/16 03:21:50;;;;;;;2.20;2.10;;;20.40;99.90;;;;;;10352994;28;20762;-85
2021/09/16 03:26:54;;;;;;;2.30;2.17;;;20.40;99.90;;;;;;10346426;28;20200;-86
2021/09/16 03:31:56;;;;;;;2.60;2.40;;;20.40;99.90;;;;;;10478051;28;20232;-85
2021/09/16 03:36:58;;;;;;;2.30;2.10;;;20.40;99.90;;;;;;10461390;28;20342;-86
2021/09/16 03:42:01;;;;;;;3.23;2.57;;;20.40;99.90;;;;;;10461396;28;20576;-86
2021/09/16 03:47:04;;;;;;;2.70;2.60;;;20.40;99.90;;;;;;10477331;28;20204;-85
2021/09/16 03:52:07;;;;;;;3.00;2.67;;;20.50;99.90;;;;;;10460877;28;20229;-85
2021/09/16 03:57:11;;;;;;;2.73;2.53;;;20.40;99.90;;;;;;10438788;28;20298;-86
2021/09/16 04:02:13;;;;;;;2.83;2.67;;;20.40;99.90;;;;;;10379324;28;20216;-85
2021/09/16 04:07:15;;;;;;;2.73;2.63;;;20.30;99.90;;;;;;10385015;28;20656;-85
2021/09/16 04:12:18;;;;;;;2.90;2.67;;;20.20;99.90;;;;;;10336013;28;20224;-85
2021/09/16 04:17:20;;;;;;;2.80;2.60;;;20.30;99.90;;;;;;10350864;28;20207;-86
2021/09/16 04:22:23;;;;;;;2.87;2.50;;;20.30;99.90;;;;;;10284032;28;20216;-85
2021/09/16 04:27:26;;;;;;;4.10;2.10;;;20.30;99.90;;;;;;10367391;28;20713;-85
2021/09/16 04:32:28;;;;;;;3.40;2.80;;;20.30;99.90;;;;;;10459344;28;20227;-85
2021/09/16 04:37:30;;;;;;;3.13;2.93;;;20.30;99.90;;;;;;10458831;28;20204;-85
2021/09/16 04:42:34;;;;;;;2.90;2.70;;;20.30;99.90;;;;;;10471335;28;20580;-86
2021/09/16 04:47:39;;;;;;;2.60;2.50;;;20.30;99.90;;;;;;10458606;28;20650;-86
2021/09/16 04:52:41;;;;;;;3.50;3.20;;;20.30;99.90;;;;;;10477835;28;20255;-86
2021/09/16 04:57:50;;;;;;;4.03;2.90;;;20.30;99.90;;;;;;10462606;28;20211;-85
2021/09/16 05:02:56;;;;;;;2.57;2.40;;;20.30;99.90;;;;;;10458869;28;20205;-84
2021/09/16 05:08:11;;;;;;;3.00;2.80;;;20.20;99.90;;;;;;10459254;28;20215;-88
2021/09/16 05:13:18;;;;;;;3.43;3.23;;;20.10;99.90;;;;;;10462465;28;20242;-85
2021/09/16 05:18:20;;;;;;;3.77;2.70;;;20.10;99.90;;;;;;10467012;28;20625;-85
2021/09/16 05:23:22;;;;;;;4.00;3.10;;;20.10;99.90;;;;;;10466029;28;20625;-87
2021/09/16 05:28:26;;;;;;;4.57;3.50;;;20.10;99.90;;;;;;10407416;28;20235;-87
2021/09/16 05:33:28;;;;;;;5.47;3.80;;;20.10;99.90;;;;;;10390295;28;20301;-87
2021/09/16 05:38:31;;;;;;;4.93;4.57;;;20.00;99.90;;;;;;10373878;28;20223;-87
2021/09/16 05:43:34;;;;;;;4.93;4.13;;;19.90;99.90;;;;;;10374139;28;20200;-87
2021/09/16 05:48:37;;;;;;;4.57;3.60;;;19.90;99.90;;;;;;10376266;28;20307;-86
2021/09/16 05:53:40;;;;;;;5.30;3.80;;;19.80;99.90;;;;;;10373595;28;20615;-86
2021/09/16 05:58:44;;;;;;;3.87;3.60;;;19.80;99.90;;;;;;10459462;28;20224;-86
2021/09/16 06:03:46;;;;;;;9.77;4.93;;;19.80;99.90;;;;;;10465968;28;20218;-86
2021/09/16 06:08:48;;;;;;;15.33;5.70;;;19.80;99.90;;;;;;10464835;28;20221;-86
2021/09/16 06:13:54;;;;;;;5.30;4.80;;;19.80;99.90;;;;;;10465371;28;20216;-87
2021/09/16 06:18:56;;;;;;;4.60;4.13;;;19.80;99.90;;;;;;10463836;28;20277;-87
2021/09/16 06:23:58;;;;;;;5.20;4.10;;;19.80;99.90;;;;;;10464348;28;20579;-86
2021/09/16 06:29:02;;;;;;;4.97;4.60;;;19.90;99.90;;;;;;10363959;28;20331;-86
2021/09/16 06:34:04;;;;;;;4.40;4.00;;;19.80;99.90;;;;;;10337053;28;20228;-86
2021/09/16 06:39:06;;;;;;;4.40;4.00;;;19.90;99.90;;;;;;10370751;28;20223;-86
2021/09/16 06:44:10;;;;;;;4.47;4.07;;;19.90;99.90;;;;;;10338360;28;20586;-86
2021/09/16 06:49:12;;;;;;;4.43;4.03;;;20.00;99.90;;;;;;10388034;28;20216;-87
2021/09/16 06:54:15;;;;;;;4.57;4.17;;;20.00;99.90;;;;;;10338051;28;20231;-87
2021/09/16 06:59:18;;;;;;;6.80;4.60;;;20.00;99.90;;;;;;10349496;28;20615;-86
2021/09/16 07:04:20;;;;;;;5.57;4.43;;;20.10;99.90;;;;;;10296970;28;20193;-85
2021/09/16 07:09:23;;;;;;;6.33;4.93;;;20.10;99.90;;;;;;10313580;28;20647;-85
2021/09/16 07:14:27;;;;;;;5.43;4.13;;;20.10;99.90;;;;;;10330375;28;20715;-85
2021/09/16 07:19:29;;;;;;;4.93;4.27;;;20.10;99.90;;;;;;10312514;28;20730;-85
2021/09/16 07:24:31;;;;;;;4.90;4.50;;;20.20;99.90;;;;;;10297425;28;20204;-86
2021/09/16 07:30:22;;;;;;;4.27;3.97;;;20.20;99.90;;;;;;10400436;22;20266;-84
2021/09/16 07:35:26;;;;;;;8.23;5.37;;;20.20;99.90;;;;;;10276869;28;20251;-84
2021/09/16 07:40:28;;;;;;;7.20;6.70;;;20.20;99.90;;;;;;10260031;28;20224;-83
2021/09/16 07:45:31;;;;;;;8.30;7.60;;;20.10;99.90;;;;;;10290508;28;20612;-84
2021/09/16 07:50:34;;;;;;;14.97;13.60;;;20.00;99.90;;;;;;10274298;28;20291;-83
2021/09/16 07:55:37;;;;;;;17.80;15.90;;;19.90;99.90;;;;;;10274975;28;20231;-83
2021/09/16 08:00:39;;;;;;;14.17;11.80;;;19.70;99.90;;;;;;10458550;28;20255;-83
2021/09/16 08:05:42;;;;;;;12.07;10.97;;;19.60;99.90;;;;;;10498647;28;20276;-84
2021/09/16 08:10:44;;;;;;;12.30;11.10;;;19.50;99.90;;;;;;10498323;28;20255;-83
2021/09/16 08:15:47;;;;;;;10.00;9.27;;;19.40;99.90;;;;;;10496647;28;20784;-84
2021/09/16 08:20:53;;;;;;;9.37;8.67;;;19.30;99.90;;;;;;10480897;28;20242;-83
2021/09/16 08:25:55;;;;;;;9.93;9.00;;;19.20;99.90;;;;;;10480046;28;20695;-84
2021/09/16 08:30:57;;;;;;;7.03;6.63;;;19.20;99.90;;;;;;10299035;28;20613;-84
2021/09/16 08:36:02;;;;;;;6.17;5.87;;;19.20;99.90;;;;;;10287609;28;20257;-84
2021/09/16 08:41:04;;;;;;;5.50;5.00;;;19.10;99.90;;;;;;10272262;28;20258;-85
2021/09/16 08:46:08;;;;;;;4.90;4.60;;;19.00;99.90;;;;;;10271264;28;20672;-84
2021/09/16 08:51:13;;;;;;;4.77;4.33;;;19.00;99.90;;;;;;10295981;28;20216;-84
2021/09/16 08:56:16;;;;;;;4.23;4.03;;;19.00;99.90;;;;;;10311525;28;20247;-84
2021/09/16 09:01:19;;;;;;;4.67;4.27;;;19.00;99.90;;;;;;10236840;28;20600;-85
2021/09/16 09:06:32;;;;;;;3.83;3.63;;;19.00;99.90;;;;;;10233300;28;20219;-85
2021/09/16 09:11:48;;;;;;;5.90;5.57;;;19.00;99.90;;;;;;10250829;28;20621;-84
2021/09/16 09:16:51;;;;;;;6.43;5.87;;;18.90;99.90;;;;;;10248845;28;20197;-84
2021/09/16 09:21:54;;;;;;;9.70;8.90;;;18.80;99.90;;;;;;10249604;28;20236;-84
2021/09/16 09:26:57;;;;;;;12.27;11.27;;;18.70;99.90;;;;;;10265311;28;20203;-83
2021/09/16 09:32:02;;;;;;;13.10;12.00;;;18.80;99.90;;;;;;10504134;28;20710;-84
2021/09/16 09:37:11;;;;;;;13.40;12.20;;;18.70;99.90;;;;;;10499738;28;20188;-85
2021/09/16 09:42:22;;;;;;;14.50;12.80;;;18.70;99.90;;;;;;10483309;28;20270;-85
2021/09/16 09:47:36;;;;;;;10.63;9.83;;;18.70;99.90;;;;;;10482355;28;20239;-86
2021/09/16 09:52:39;;;;;;;10.90;9.80;;;18.70;99.90;;;;;;10482697;28;20255;-85
2021/09/16 09:57:42;;;;;;;9.00;8.20;;;18.70;99.90;;;;;;10500135;28;20232;-86
2021/09/16 10:02:50;;;;;;;8.67;7.97;;;18.70;99.90;;;;;;10482739;28;20239;-87
2021/09/16 10:07:54;;;;;;;10.20;9.30;;;18.70;99.90;;;;;;10498798;28;20221;-86
2021/09/16 10:12:57;;;;;;;11.47;10.50;;;18.70;99.90;;;;;;10497430;28;20216;-85
2021/09/16 10:17:59;;;;;;;13.23;11.93;;;18.60;99.90;;;;;;10497504;28;20217;-85
2021/09/16 10:23:06;;;;;;;15.27;13.97;;;18.60;99.90;;;;;;10497782;28;20716;-85
2021/09/16 10:28:09;;;;;;;16.83;15.23;;;18.60;99.90;;;;;;10497977;28;20222;-85
2021/09/16 10:33:13;;;;;;;16.00;14.53;;;18.60;99.90;;;;;;10497062;28;20580;-85
2021/09/16 10:38:29;;;;;;;16.13;14.53;;;18.70;99.90;;;;;;10498197;28;20216;-86
2021/09/16 10:43:31;;;;;;;17.07;15.47;;;18.80;99.90;;;;;;10480905;28;20204;-85
2021/09/16 10:48:34;;;;;;;16.40;14.60;;;18.80;99.90;;;;;;10498419;28;20273;-85
2021/09/16 10:53:42;;;;;;;15.90;14.40;;;18.80;99.90;;;;;;10520495;28;20213;-86
2021/09/16 10:58:52;;;;;;;17.83;16.07;;;18.90;99.90;;;;;;10408145;28;20263;-85
2021/09/16 11:04:01;;;;;;;18.90;17.00;;;18.90;99.90;;;;;;10286007;28;20192;-85
2021/09/16 11:09:05;;;;;;;18.83;17.03;;;19.00;99.90;;;;;;10269507;28;20754;-84
2021/09/16 11:14:08;;;;;;;20.10;18.10;;;19.00;99.90;;;;;;10293386;28;20604;-85
2021/09/16 11:19:10;;;;;;;19.13;16.93;;;19.00;99.90;;;;;;10276783;28;20247;-85
2021/09/16 11:24:13;;;;;;;19.90;17.60;;;19.00;99.90;;;;;;10269610;28;20196;-85
2021/09/16 11:29:15;;;;;;;20.10;18.13;;;19.10;99.90;;;;;;10286669;28;20220;-84
2021/09/16 11:34:20;;;;;;;21.03;18.97;;;19.10;99.90;;;;;;10285223;28;20228;-85
2021/09/16 11:39:23;;;;;;;20.07;17.93;;;19.10;99.90;;;;;;10268862;28;20220;-84
2021/09/16 11:44:25;;;;;;;23.37;18.37;;;19.10;99.90;;;;;;10400370;28;20660;-85
2021/09/16 11:49:28;;;;;;;21.77;18.67;;;19.10;99.90;;;;;;10494866;28;20795;-85
2021/09/16 11:54:31;;;;;;;20.50;18.40;;;19.10;99.90;;;;;;10493777;28;20722;-86
2021/09/16 11:59:34;;;;;;;21.27;17.77;;;19.30;99.90;;;;;;10477555;28;20226;-85
2021/09/16 12:04:40;;;;;;;19.97;18.07;;;19.40;99.90;;;;;;10493859;28;20181;-85
2021/09/16 12:09:44;;;;;;;21.13;18.77;;;19.40;99.90;;;;;;10477091;28;20311;-85
2021/09/16 12:14:49;;;;;;;21.90;19.80;;;19.50;99.90;;;;;;10477367;28;20244;-85
2021/09/16 12:19:53;;;;;;;22.40;20.00;;;19.60;99.90;;;;;;10495413;28;20216;-85
2021/09/16 12:25:00;;;;;;;26.53;20.67;;;19.50;99.90;;;;;;10490099;28;20200;-85
2021/09/16 12:30:14;;;;;;;23.77;21.47;;;19.50;99.90;;;;;;10490728;28;20219;-85
2021/09/16 12:35:17;;;;;;;25.13;20.70;;;19.50;99.90;;;;;;10507468;28;20243;-86
2021/09/16 12:40:28;;;;;;;24.40;22.10;;;19.50;99.90;;;;;;10507138;28;20212;-85
2021/09/16 12:45:30;;;;;;;23.83;21.33;;;19.50;99.90;;;;;;10322328;28;20229;-85
2021/09/16 12:50:32;;;;;;;26.70;24.10;;;19.30;99.90;;;;;;10261495;28;20220;-86
2021/09/16 12:55:36;;;;;;;28.67;25.63;;;19.30;99.90;;;;;;10240743;28;20252;-85
2021/09/16 13:00:40;;;;;;;25.47;22.97;;;19.40;99.90;;;;;;10256572;28;20212;-85
2021/09/16 13:05:42;;;;;;;24.50;21.87;;;19.50;99.90;;;;;;10255729;28;20900;-85
2021/09/16 13:10:46;;;;;;;24.97;22.60;;;19.50;99.90;;;;;;10257223;28;20708;-85
2021/09/16 13:15:49;;;;;;;24.53;22.03;;;19.70;99.90;;;;;;10463030;28;20282;-85
2021/09/16 13:20:51;;;;;;;23.33;21.00;;;19.80;99.90;;;;;;10489945;28;20224;-85
2021/09/16 13:25:55;;;;;;;25.60;22.97;;;19.80;99.90;;;;;;10489613;28;20292;-85
2021/09/16 13:30:57;;;;;;;26.90;22.93;;;19.70;99.90;;;;;;10509003;28;20228;-85
2021/09/16 13:35:59;;;;;;;25.80;23.40;;;19.60;99.90;;;;;;10491770;28;20244;-85
2021/09/16 13:41:02;;;;;;;26.33;23.63;;;19.60;99.90;;;;;;10486093;28;20247;-85
2021/09/16 13:46:05;;;;;;;27.60;24.90;;;19.60;99.90;;;;;;10298428;28;20208;-85
2021/09/16 13:51:07;;;;;;;26.43;23.93;;;19.70;99.90;;;;;;10274079;28;20298;-85
2021/09/16 13:56:10;;;;;;;24.80;22.50;;;19.70;99.90;;;;;;10292186;28;20223;-85
2021/09/16 14:01:13;;;;;;;24.33;21.93;;;19.80;99.90;;;;;;10291281;28;20216;-85
2021/09/16 14:06:15;;;;;;;27.07;24.37;;;19.80;99.90;;;;;;10290809;28;20200;-85
2021/09/16 14:11:18;;;;;;;25.07;22.70;;;19.80;99.90;;;;;;10290633;28;20630;-85
2021/09/16 14:16:20;;;;;;;21.60;19.80;;;19.80;99.90;;;;;;10289150;28;20319;-85
2021/09/16 14:21:23;;;;;;;25.53;22.97;;;19.80;99.90;;;;;;10276336;28;20604;-85
2021/09/16 14:26:26;;;;;;;23.30;21.00;;;19.80;99.90;;;;;;10311896;28;20204;-85
2021/09/16 14:31:29;;;;;;;22.50;20.50;;;19.80;99.90;;;;;;10276519;28;20262;-85
2021/09/16 14:36:31;;;;;;;24.93;20.37;;;19.90;99.90;;;;;;10293668;28;20780;-85
2021/09/16 14:41:34;;;;;;;20.20;18.30;;;19.90;99.90;;;;;;10294505;28;20271;-85
2021/09/16 14:46:36;;;;;;;16.37;15.00;;;19.90;99.90;;;;;;10502412;28;20443;-86
2021/09/16 14:51:39;;;;;;;17.07;15.63;;;19.90;99.90;;;;;;10504382;28;20640;-85
2021/09/16 14:56:42;;;;;;;15.37;14.17;;;19.90;99.90;;;;;;10486369;28;20216;-85
2021/09/16 15:01:44;;;;;;;15.60;14.17;;;20.00;99.90;;;;;;10488140;28;20227;-85
2021/09/16 15:06:46;;;;;;;14.40;13.20;;;20.10;99.90;;;;;;10484802;28;20192;-85
2021/09/16 15:11:52;;;;;;;15.97;14.47;;;20.10;99.90;;;;;;10485130;28;20777;-85
2021/09/16 15:16:55;;;;;;;14.83;13.73;;;20.10;99.90;;;;;;10484461;28;20315;-85
2021/09/16 15:21:57;;;;;;;15.00;13.70;;;20.20;99.90;;;;;;10503152;28;20578;-85
2021/09/16 15:27:01;;;;;;;14.83;13.43;;;20.20;99.90;;;;;;10487342;28;20246;-85
2021/09/16 15:32:07;;;;;;;14.43;13.13;;;20.20;99.90;;;;;;10487440;28;20228;-85
2021/09/16 15:37:10;;;;;;;13.73;12.53;;;20.20;99.90;;;;;;10493843;28;20228;-85
2021/09/16 15:42:13;;;;;;;13.30;12.07;;;20.20;99.90;;;;;;10475648;28;20637;-85
2021/09/16 15:47:17;;;;;;;12.60;11.60;;;20.20;99.90;;;;;;10289226;28;20215;-86
2021/09/16 15:52:20;;;;;;;13.50;12.20;;;20.20;99.90;;;;;;10289259;28;20325;-85
2021/09/16 15:57:23;;;;;;;12.40;11.40;;;20.20;99.90;;;;;;10289066;28;20262;-85
2021/09/16 16:02:26;;;;;;;11.77;10.90;;;20.10;99.90;;;;;;10290111;28;20564;-85
2021/09/16 16:07:31;;;;;;;13.40;12.00;;;20.10;99.90;;;;;;10273255;28;20215;-85
2021/09/16 16:12:35;;;;;;;12.80;10.40;;;20.00;99.90;;;;;;10309348;28;20236;-85
2021/09/16 16:17:37;;;;;;;12.13;10.83;;;19.90;99.90;;;;;;10498524;28;20734;-86
2021/09/16 16:22:40;;;;;;;10.53;9.63;;;19.90;99.90;;;;;;10484221;28;20220;-85
2021/09/16 16:27:43;;;;;;;11.20;10.20;;;19.80;99.90;;;;;;10501398;28;20652;-85
2021/09/16 16:32:46;;;;;;;12.07;10.30;;;19.80;99.90;;;;;;10501901;28;20224;-85
2021/09/16 16:37:49;;;;;;;10.23;9.50;;;19.80;99.90;;;;;;10501220;28;20594;-85
2021/09/16 16:42:55;;;;;;;9.73;8.97;;;19.80;99.90;;;;;;10502625;28;20711;-85
2021/09/16 16:47:57;;;;;;;10.13;9.20;;;19.80;99.90;;;;;;10487624;28;20643;-86
2021/09/16 16:52:59;;;;;;;11.97;8.70;;;19.70;99.90;;;;;;10504710;28;20196;-85
2021/09/16 16:58:03;;;;;;;10.17;9.37;;;19.70;99.90;;;;;;10504950;28;20677;-85
2021/09/16 17:03:06;;;;;;;9.23;8.53;;;19.60;99.90;;;;;;10506167;28;20192;-85
2021/09/16 17:08:08;;;;;;;9.37;8.57;;;19.60;99.90;;;;;;10506906;28;20226;-86
2021/09/16 17:13:12;;;;;;;9.00;8.20;;;19.50;99.90;;;;;;10433941;28;20265;-84
2021/09/16 17:18:14;;;;;;;7.60;6.90;;;19.50;99.90;;;;;;10284867;28;20604;-86
2021/09/16 17:23:16;;;;;;;8.00;7.33;;;19.40;99.90;;;;;;10301990;28;20246;-85
2021/09/16 17:28:20;;;;;;;9.47;8.13;;;19.40;99.90;;;;;;10283947;28;20232;-85
2021/09/16 17:33:22;;;;;;;7.97;7.37;;;19.30;99.90;;;;;;10285851;28;20253;-85
2021/09/16 17:38:26;;;;;;;9.53;8.83;;;19.30;99.90;;;;;;10296626;28;20224;-86
2021/09/16 17:43:30;;;;;;;8.13;7.30;;;19.30;99.90;;;;;;10278334;28;20213;-85
2021/09/16 17:48:32;;;;;;;9.30;8.50;;;19.20;99.90;;;;;;10283647;28;20212;-85
2021/09/16 17:53:34;;;;;;;8.07;7.37;;;19.20;99.90;;;;;;10276976;28;20600;-85
2021/09/16 17:58:38;;;;;;;8.47;7.67;;;19.20;99.90;;;;;;10257361;28;20223;-84
2021/09/16 18:03:40;;;;;;;8.27;7.37;;;19.00;99.90;;;;;;10255876;28;20253;-86
2021/09/16 18:08:42;;;;;;;7.07;6.33;;;19.00;99.90;;;;;;10261926;28;20216;-86
2021/09/16 18:13:46;;;;;;;6.63;6.03;;;18.90;99.90;;;;;;10288015;28;20200;-85
2021/09/16 18:18:48;;;;;;;7.70;7.00;;;18.90;99.90;;;;;;10273833;28;20236;-86
2021/09/16 18:23:51;;;;;;;7.03;6.47;;;18.90;99.90;;;;;;10275343;28;20199;-86
2021/09/16 18:28:54;;;;;;;7.60;7.00;;;18.80;99.90;;;;;;10277919;28;20244;-84
2021/09/16 18:33:57;;;;;;;7.30;6.80;;;18.80;99.90;;;;;;10268987;28;20219;-85
2021/09/16 18:39:01;;;;;;;6.60;6.20;;;18.80;99.90;;;;;;10278932;28;20216;-85
2021/09/16 18:44:05;;;;;;;7.07;6.57;;;18.80;99.90;;;;;;10284381;28;20208;-85
2021/09/16 18:49:07;;;;;;;6.30;5.90;;;18.80;99.90;;;;;;10262175;28;20303;-85
2021/09/16 18:54:09;;;;;;;6.33;5.73;;;18.80;99.90;;;;;;10268265;28;20269;-85
2021/09/16 18:59:13;;;;;;;6.60;6.10;;;18.80;99.90;;;;;;10281671;28;20235;-85
2021/09/16 19:04:16;;;;;;;6.90;6.30;;;18.80;99.90;;;;;;10345540;28;20232;-85
2021/09/16 19:09:19;;;;;;;7.10;6.50;;;18.80;99.90;;;;;;10288616;28;20224;-85
2021/09/16 19:14:24;;;;;;;6.27;5.73;;;18.70;99.90;;;;;;10273432;28;20231;-85
2021/09/16 19:19:27;;;;;;;8.93;6.60;;;18.70;99.90;;;;;;10348054;28;20246;-84
2021/09/16 19:24:29;;;;;;;6.80;6.30;;;18.60;99.90;;;;;;10244092;28;20216;-84
2021/09/16 19:36:12;;;;;;;6.67;6.27;;;18.40;99.90;;;;;;10424457;28;20315;-85
2021/09/16 19:41:17;;;;;;;8.13;6.47;;;18.20;99.90;;;;;;10502976;28;20700;-84
2021/09/16 19:46:19;;;;;;;7.70;7.03;;;18.10;99.90;;;;;;10520181;28;20212;-85
2021/09/16 19:51:23;;;;;;;7.37;6.67;;;18.00;99.90;;;;;;10503078;28;20238;-85
2021/09/16 19:56:27;;;;;;;6.97;6.47;;;17.90;99.90;;;;;;10503280;28;20212;-85
2021/09/16 20:01:29;;;;;;;6.27;5.87;;;17.80;99.90;;;;;;10504502;28;20214;-85
2021/09/16 20:06:34;;;;;;;7.00;6.30;;;17.60;99.90;;;;;;10518227;28;20718;-85
2021/09/16 20:11:36;;;;;;;6.50;6.10;;;17.50;99.90;;;;;;10502677;28;20278;-85
2021/09/16 20:16:39;;;;;;;7.73;7.00;;;17.30;99.90;;;;;;10501819;28;20652;-85
2021/09/16 20:21:43;;;;;;;7.77;7.10;;;17.20;99.90;;;;;;10503723;28;20223;-85
2021/09/16 20:26:46;;;;;;;7.43;6.73;;;17.10;99.90;;;;;;10520649;28;20199;-85
2021/09/16 20:31:48;;;;;;;6.30;5.80;;;17.10;99.90;;;;;;10501383;28;20235;-85
2021/09/16 20:36:54;;;;;;;6.80;6.20;;;17.00;99.90;;;;;;10519131;28;20232;-85
2021/09/16 20:41:56;;;;;;;7.13;6.43;;;16.90;99.90;;;;;;10503065;28;20219;-85
2021/09/16 20:46:58;;;;;;;7.20;6.50;;;16.80;99.90;;;;;;10510758;28;20222;-85
2021/09/16 20:52:02;;;;;;;7.87;7.30;;;16.70;99.90;;;;;;10526991;28;20220;-85
2021/09/16 20:57:05;;;;;;;7.90;7.20;;;16.70;99.90;;;;;;10527258;28;20224;-85
2021/09/16 21:02:08;;;;;;;7.27;6.67;;;16.70;99.90;;;;;;10512788;28;20254;-84
2021/09/16 21:07:12;;;;;;;6.87;6.37;;;16.70;99.90;;;;;;10528933;28;20479;-85
2021/09/16 21:12:14;;;;;;;7.37;6.83;;;16.60;99.90;;;;;;10512509;28;20222;-85
2021/09/16 21:17:16;;;;;;;7.40;6.67;;;16.60;99.90;;;;;;10509684;28;20220;-85
2021/09/16 21:22:20;;;;;;;8.07;7.43;;;16.40;99.90;;;;;;10527632;28;20270;-84
2021/09/16 21:27:22;;;;;;;7.30;6.60;;;16.40;99.90;;;;;;10532028;28;20662;-85
2021/09/16 21:32:26;;;;;;;6.93;6.33;;;16.40;99.90;;;;;;10508245;28;20691;-84
2021/09/16 21:37:30;;;;;;;6.70;6.20;;;16.30;99.90;;;;;;10508139;28;20587;-84
2021/09/16 21:42:32;;;;;;;7.10;6.30;;;16.30;99.90;;;;;;10508001;28;20224;-84
2021/09/16 21:47:41;;;;;;;6.73;6.13;;;16.30;99.90;;;;;;10507662;28;20188;-85
2021/09/16 21:52:44;;;;;;;9.33;6.77;;;16.30;99.90;;;;;;10507387;28;20270;-84
2021/09/16 21:57:49;;;;;;;7.00;6.50;;;16.30;99.90;;;;;;10541295;28;20215;-84
2021/09/16 22:02:57;;;;;;;7.00;6.30;;;16.30;99.90;;;;;;10539342;28;20216;-84
2021/09/16 22:08:01;;;;;;;7.37;6.80;;;16.30;99.90;;;;;;10528365;28;20655;-84
2021/09/16 22:13:03;;;;;;;7.10;6.53;;;16.30;99.90;;;;;;10495348;28;20774;-84
2021/09/16 22:18:06;;;;;;;7.33;6.60;;;16.30;99.90;;;;;;10509033;28;20223;-84
2021/09/16 22:23:09;;;;;;;6.43;5.93;;;16.20;99.90;;;;;;10520619;28;20286;-85
2021/09/16 22:28:12;;;;;;;7.43;6.60;;;16.20;99.90;;;;;;10519385;28;20196;-84
2021/09/16 22:33:14;;;;;;;6.90;6.20;;;16.10;99.90;;;;;;10523995;28;20315;-84
2021/09/16 22:38:17;;;;;;;6.70;6.20;;;16.10;99.90;;;;;;10524940;28;20270;-84
2021/09/16 22:43:22;;;;;;;6.53;5.90;;;16.10;99.90;;;;;;10525791;28;20273;-84
2021/09/16 22:48:28;;;;;;;7.00;6.50;;;16.10;99.90;;;;;;10525862;28;20227;-84
2021/09/16 22:53:31;;;;;;;6.30;5.80;;;16.20;99.90;;;;;;10543332;28;20188;-84
2021/09/16 22:58:33;;;;;;;7.57;6.80;;;16.20;99.90;;;;;;10510594;28;20284;-84
2021/09/16 23:03:36;;;;;;;7.27;6.77;;;16.20;99.90;;;;;;10544005;28;20230;-84
2021/09/16 23:08:39;;;;;;;7.30;6.80;;;16.30;99.90;;;;;;10509386;28;20609;-85
2021/09/16 23:13:42;;;;;;;6.97;6.47;;;16.20;99.90;;;;;;10527808;28;20192;-84
2021/09/16 23:18:44;;;;;;;6.60;6.20;;;16.20;99.90;;;;;;10532383;28;20334;-84
2021/09/16 23:23:48;;;;;;;7.30;6.57;;;16.30;99.90;;;;;;10523553;28;20203;-84
2021/09/16 23:28:50;;;;;;;6.33;5.93;;;16.30;99.90;;;;;;10542345;28;20247;-84
2021/09/16 23:33:52;;;;;;;7.50;7.00;;;16.40;99.90;;;;;;10522453;28;20208;-84
2021/09/16 23:38:56;;;;;;;6.13;5.73;;;16.40;99.90;;;;;;10521406;28;20266;-84
2021/09/16 23:43:58;;;;;;;6.80;6.40;;;16.50;99.90;;;;;;10520297;28;20204;-84
2021/09/16 23:49:00;;;;;;;6.37;5.97;;;16.50;99.90;;;;;;10520662;28;20220;-84
2021/09/16 23:54:03;;;;;;;5.40;5.10;;;16.50;99.90;;;;;;10508467;28;20721;-83
2021/09/16 23:59:08;;;;;;;5.50;5.20;;;16.50;99.90;;;;;;10507654;28;20235;-84
